Time;durP1;ratioP1;P1;durP2;ratioP2;P2;SDS_P1;SDS_P2;PMS_P1;PMS_P2;Temp;Humidity;BMP_temperature;BMP_pressure;BME280_temperature;BME280_humidity;BME280_pressure;Samples;Min_cycle;Max_cycle;Signal;HPM_P1;HPM_P2
2022/02/11 00:02:17;;;;;;;38.40;21.20;;;;;;;5.23;73.86;99779.05;25043;1316;3028428;-70
2022/02/11 00:07:55;;;;;;;40.40;20.90;;;;;;;4.73;75.56;99775.61;25018;1316;3055458;-68
2022/02/11 00:10:25;;;;;;;38.00;21.80;;;;;;;4.55;76.06;99775.47;25077;1316;3056977;-69
2022/02/11 00:12:54;;;;;;;32.80;18.90;;;;;;;4.55;76.29;99774.79;25087;1316;3028436;-68
2022/02/11 00:15:37;;;;;;;36.00;18.30;;;;;;;5.05;75.87;99772.67;25086;1316;3053252;-70
2022/02/11 00:18:07;;;;;;;33.60;17.90;;;;;;;5.72;73.75;99762.42;25105;1316;3058162;-70
2022/02/11 00:20:37;;;;;;;37.40;20.50;;;;;;;5.47;73.50;99757.38;25077;1315;3027944;-68
2022/02/11 00:23:07;;;;;;;41.50;22.70;;;;;;;5.27;73.83;99765.16;25060;1316;3028731;-69
2022/02/11 00:25:39;;;;;;;48.80;26.00;;;;;;;5.06;74.11;99762.76;25069;1317;3029098;-68
2022/02/11 00:33:55;;;;;;;34.70;19.70;;;;;;;4.45;76.69;99765.21;25064;1316;3053815;-68
2022/02/11 00:36:31;;;;;;;41.20;22.30;;;;;;;5.00;75.49;99760.15;25099;1316;3026660;-70
2022/02/11 01:04:18;;;;;;;44.20;23.30;;;;;;;5.24;74.14;99726.89;25119;1316;3054189;-71
2022/02/11 01:06:47;;;;;;;57.80;30.00;;;;;;;5.12;73.93;99729.74;25066;1316;3027271;-71
2022/02/11 01:09:16;;;;;;;55.80;28.10;;;;;;;4.67;75.61;99731.73;25118;1317;3048455;-68
2022/02/11 01:11:50;;;;;;;40.50;20.80;;;;;;;4.63;76.27;99734.66;25065;1316;3026508;-67
2022/02/11 01:14:28;;;;;;;59.60;29.40;;;;;;;5.49;74.77;99723.77;25014;1316;3069733;-72
2022/02/11 01:17:05;;;;;;;57.00;28.20;;;;;;;5.52;74.18;99730.27;25052;1316;3047974;-68
2022/02/11 01:20:29;;;;;;;57.30;27.00;;;;;;;5.72;73.19;99723.98;25012;1317;3052267;-69
2022/02/11 01:55:32;;;;;;;41.70;22.50;;;;;;;5.71;73.33;99716.02;25115;1317;3026197;-71
2022/02/11 02:20:35;;;;;;;41.20;23.90;;;;;;;5.42;73.65;99709.77;25018;1317;3029033;-72
2022/02/11 02:39:14;;;;;;;51.10;27.90;;;;;;;5.40;73.77;99703.74;25035;1317;3054829;-69
2022/02/11 02:58:11;;;;;;;45.00;24.10;;;;;;;5.48;73.56;99702.08;25071;1316;3053730;-70
2022/02/11 03:15:08;;;;;;;39.40;20.50;;;;;;;5.29;76.00;99709.86;25042;1317;3050050;-66
2022/02/11 03:34:48;;;;;;;34.40;18.60;;;;;;;4.38;77.88;99685.81;25032;1317;3057760;-70
2022/02/11 03:54:25;;;;;;;32.60;19.20;;;;;;;4.61;76.67;99677.61;25069;1316;3051994;-70
2022/02/11 05:00:14;;;;;;;31.00;18.30;;;;;;;5.03;75.23;99643.40;25049;1317;3070090;-73
2022/02/11 05:02:46;;;;;;;30.90;17.70;;;;;;;4.78;76.32;99648.77;25091;1317;3026401;-70
2022/02/11 05:05:15;;;;;;;31.80;17.50;;;;;;;4.45;77.39;99652.79;25097;1316;3026460;-70
2022/02/11 05:07:44;;;;;;;30.70;20.00;;;;;;;4.14;78.47;99658.13;25092;1316;3026856;-74
2022/02/11 05:10:14;;;;;;;28.50;18.70;;;;;;;3.91;79.79;99659.52;25088;1317;3026496;-68
2022/02/11 05:12:44;;;;;;;24.50;16.20;;;;;;;3.67;80.79;99664.91;25045;1317;3026492;-73
2022/02/11 05:15:13;;;;;;;24.10;16.00;;;;;;;4.13;79.63;99661.45;25112;1317;3028103;-72
2022/02/11 05:17:45;;;;;;;27.30;16.90;;;;;;;4.51;77.58;99660.76;25094;1316;3057527;-70
2022/02/11 05:20:14;;;;;;;26.80;17.20;;;;;;;4.39;77.85;99657.69;25091;1316;3027106;-68
2022/02/11 05:22:43;;;;;;;29.60;17.10;;;;;;;4.53;77.29;99650.98;25074;1317;3026523;-72
2022/02/11 05:25:13;;;;;;;27.00;17.40;;;;;;;4.31;77.76;99652.92;25039;1316;3057643;-69
2022/02/11 05:27:42;;;;;;;28.80;17.10;;;;;;;4.12;78.32;99650.57;25068;1316;3026436;-74
2022/02/11 05:30:11;;;;;;;34.50;18.60;;;;;;;4.00;78.88;99655.79;25096;1317;3051385;-69
2022/02/11 05:32:42;;;;;;;25.50;14.90;;;;;;;3.81;79.76;99659.48;25053;1316;3027407;-71
2022/02/11 05:35:11;;;;;;;25.80;16.80;;;;;;;4.24;78.86;99657.13;25047;1316;3026209;-72
2022/02/11 05:37:40;;;;;;;29.00;17.50;;;;;;;4.72;77.00;99650.20;25090;1316;3029854;-70
2022/02/11 05:40:10;;;;;;;25.90;15.60;;;;;;;4.70;76.31;99659.96;25036;1317;3058324;-68
2022/02/11 05:42:39;;;;;;;31.50;18.80;;;;;;;4.75;76.14;99655.30;25033;1316;3026618;-72
2022/02/11 05:45:09;;;;;;;33.20;18.70;;;;;;;4.32;77.19;99661.89;25094;1316;3026537;-69
2022/02/11 05:47:38;;;;;;;32.50;17.90;;;;;;;4.18;77.86;99660.24;25109;1316;3056833;-71
2022/02/11 05:50:07;;;;;;;34.70;18.40;;;;;;;3.88;78.87;99660.98;25057;1317;3026559;-69
2022/02/11 05:52:36;;;;;;;32.20;17.20;;;;;;;3.77;79.70;99656.66;25112;1316;3052816;-70
2022/02/11 05:55:05;;;;;;;27.70;15.70;;;;;;;4.18;78.65;99656.27;25069;1316;3026582;-69
2022/02/11 05:57:35;;;;;;;28.80;15.60;;;;;;;4.70;76.62;99653.21;25064;1317;3051649;-72
2022/02/11 06:00:07;;;;;;;30.40;16.40;;;;;;;4.72;75.88;99653.51;25112;1316;3027128;-73
2022/02/11 06:02:42;;;;;;;29.50;17.90;;;;;;;4.36;76.64;99656.72;25156;1316;3059095;-71
2022/02/11 06:05:16;;;;;;;31.90;17.30;;;;;;;4.29;77.16;99664.08;25059;1316;3026392;-72
2022/02/11 06:07:58;;;;;;;48.40;25.00;;;;;;;4.17;77.19;99662.86;25125;1317;3052841;-68
2022/02/11 06:10:26;;;;;;;66.80;29.10;;;;;;;4.04;77.74;99664.51;25119;1316;3026544;-69
2022/02/11 06:12:56;;;;;;;58.00;26.70;;;;;;;3.94;78.39;99659.94;25100;1317;3026797;-73
2022/02/11 06:15:25;;;;;;;54.30;24.80;;;;;;;3.93;78.62;99658.24;25059;1317;3055129;-70
2022/02/11 06:17:54;;;;;;;46.20;21.10;;;;;;;4.51;77.03;99655.71;25146;1318;3026525;-70
2022/02/11 06:20:28;;;;;;;60.10;25.70;;;;;;;4.89;74.96;99653.25;25087;1318;3052181;-69
2022/02/11 06:22:57;;;;;;;54.00;24.40;;;;;;;5.02;74.36;99653.32;25096;1316;3056011;-71
2022/02/11 06:25:27;;;;;;;58.10;27.50;;;;;;;4.92;74.43;99657.66;25116;1318;3026669;-74
2022/02/11 06:27:57;;;;;;;62.60;27.40;;;;;;;4.70;75.09;99661.20;25143;1317;3028975;-72
2022/02/11 06:30:26;;;;;;;59.30;27.50;;;;;;;4.46;75.84;99651.90;25130;1318;3026604;-72
2022/02/11 06:32:56;;;;;;;54.20;25.40;;;;;;;4.29;76.54;99654.17;25154;1317;3051130;-67
2022/02/11 06:35:31;;;;;;;50.50;24.50;;;;;;;4.27;76.56;99658.42;25114;1318;3026695;-72
2022/02/11 06:38:01;;;;;;;51.70;25.30;;;;;;;4.15;77.22;99657.23;25089;1318;3050064;-73
2022/02/11 06:40:30;;;;;;;42.80;19.30;;;;;;;4.14;77.46;99654.66;25103;1318;3029890;-72
2022/02/11 06:42:59;;;;;;;41.20;20.50;;;;;;;4.55;76.45;99651.59;25088;1317;3069186;-71
2022/02/11 06:45:28;;;;;;;33.30;17.10;;;;;;;5.08;74.35;99647.58;25142;1317;3026990;-71
2022/02/11 06:47:57;;;;;;;37.00;18.20;;;;;;;5.05;73.35;99641.61;25050;1318;3055466;-69
2022/02/11 06:50:26;;;;;;;40.90;20.10;;;;;;;5.03;73.57;99639.56;25097;1317;3028501;-73
2022/02/11 06:52:57;;;;;;;59.90;25.70;;;;;;;4.90;73.57;99638.30;25147;1318;3053605;-71
2022/02/11 06:55:26;;;;;;;64.10;28.20;;;;;;;4.60;74.54;99635.33;25137;1318;3028462;-73
2022/02/11 06:57:55;;;;;;;46.40;22.70;;;;;;;4.47;76.11;99634.17;25057;1317;3052092;-73
2022/02/11 07:00:24;;;;;;;42.70;21.00;;;;;;;4.45;76.25;99632.84;25175;1317;3026595;-71
2022/02/11 07:02:57;;;;;;;38.00;20.60;;;;;;;4.19;76.79;99636.13;25125;1318;3025921;-73
2022/02/11 07:05:27;;;;;;;24.40;13.40;;;;;;;4.07;77.62;99634.60;25126;1318;3026926;-73
2022/02/11 07:07:56;;;;;;;23.00;12.60;;;;;;;4.75;75.65;99623.73;25129;1319;3026695;-75
2022/02/11 07:10:26;;;;;;;24.60;13.40;;;;;;;5.13;73.65;99621.35;25140;1317;3026676;-70
2022/02/11 07:12:56;;;;;;;24.60;15.10;;;;;;;5.03;73.65;99619.60;25091;1317;3070810;-74
2022/02/11 07:15:26;;;;;;;26.00;15.30;;;;;;;4.80;74.13;99614.86;25107;1317;3026394;-67
2022/02/11 07:17:54;;;;;;;36.60;17.80;;;;;;;4.58;74.54;99613.54;25142;1318;3051005;-71
2022/02/11 07:20:23;;;;;;;50.40;21.50;;;;;;;4.39;75.38;99613.11;25066;1318;3026354;-69
2022/02/11 07:22:52;;;;;;;45.10;20.20;;;;;;;4.27;76.00;99608.30;25076;1317;3056169;-75
2022/02/11 07:25:21;;;;;;;42.70;19.90;;;;;;;4.23;75.59;99605.30;25100;1317;3026737;-67
2022/02/11 07:27:51;;;;;;;33.60;18.00;;;;;;;3.90;76.84;99605.84;25071;1318;3051972;-68
2022/02/11 07:30:22;;;;;;;26.70;15.60;;;;;;;3.96;76.71;99603.04;25144;1317;3026147;-68
2022/02/11 07:32:52;;;;;;;30.50;15.50;;;;;;;4.27;76.20;99598.22;25078;1318;3055427;-73
2022/02/11 07:35:21;;;;;;;32.20;15.90;;;;;;;4.60;74.78;99590.91;25075;1318;3026884;-70
2022/02/11 07:37:50;;;;;;;28.60;16.30;;;;;;;4.46;74.80;99591.71;25090;1318;3026989;-72
2022/02/11 07:40:19;;;;;;;31.80;17.90;;;;;;;4.30;75.43;99595.02;25086;1317;3026688;-71
2022/02/11 07:42:52;;;;;;;34.70;20.10;;;;;;;4.16;75.80;99596.17;25156;1317;3052273;-73
2022/02/11 07:45:24;;;;;;;37.60;20.20;;;;;;;4.03;76.68;99592.91;25142;1316;3027485;-71
2022/02/11 07:47:53;;;;;;;37.00;19.60;;;;;;;3.90;76.90;99591.27;25147;1318;3026531;-71
2022/02/11 07:50:21;;;;;;;31.30;17.60;;;;;;;3.82;77.25;99589.95;25105;1317;3027889;-71
2022/02/11 07:52:51;;;;;;;30.30;17.30;;;;;;;3.60;77.88;99591.81;25159;1317;3054945;-71
2022/02/11 07:55:20;;;;;;;24.90;13.30;;;;;;;3.59;78.55;99585.45;25143;1318;3026483;-71
2022/02/11 07:57:52;;;;;;;27.30;14.60;;;;;;;4.22;76.55;99582.29;25036;1317;3028158;-68
2022/02/11 08:00:22;;;;;;;27.50;14.20;;;;;;;4.51;74.95;99573.70;25094;1317;3027371;-72
2022/02/11 08:02:52;;;;;;;26.00;14.70;;;;;;;4.43;74.72;99576.71;25099;1318;3028368;-69
2022/02/11 08:05:21;;;;;;;29.10;16.20;;;;;;;4.13;75.48;99580.14;25092;1316;3026278;-68
2022/02/11 08:07:50;;;;;;;31.80;18.40;;;;;;;3.95;76.56;99577.58;25083;1317;3048322;-69
2022/02/11 08:10:19;;;;;;;31.80;17.10;;;;;;;3.78;76.79;99582.81;25077;1318;3026902;-70
2022/02/11 08:12:49;;;;;;;35.70;18.60;;;;;;;3.76;77.23;99575.06;25045;1317;3070368;-68
2022/02/11 08:15:18;;;;;;;38.70;18.50;;;;;;;3.75;77.37;99577.34;25129;1316;3026385;-69
2022/02/11 08:17:47;;;;;;;30.50;16.50;;;;;;;3.58;78.02;99575.95;25083;1318;3026552;-70
2022/02/11 08:20:16;;;;;;;35.80;17.90;;;;;;;4.03;76.91;99573.00;25145;1316;3071095;-70
2022/02/11 08:22:47;;;;;;;32.70;16.80;;;;;;;4.39;75.14;99561.41;25108;1316;3026069;-69
2022/02/11 08:25:15;;;;;;;36.50;17.10;;;;;;;4.34;74.85;99570.77;25102;1317;3026145;-69
2022/02/11 08:27:47;;;;;;;36.80;18.30;;;;;;;4.31;75.20;99564.80;25088;1318;3068013;-70
2022/02/11 08:30:16;;;;;;;32.50;16.70;;;;;;;3.96;76.14;99569.41;25123;1316;3026932;-72
2022/02/11 08:32:45;;;;;;;34.90;17.40;;;;;;;3.68;77.42;99565.95;25115;1317;3029385;-71
2022/02/11 08:35:14;;;;;;;43.60;19.10;;;;;;;3.69;77.32;99561.60;25120;1317;3067109;-72
2022/02/11 08:37:43;;;;;;;63.90;21.80;;;;;;;3.64;77.85;99565.02;25116;1316;3026364;-69
2022/02/11 08:40:12;;;;;;;40.70;17.50;;;;;;;3.62;78.18;99559.55;25144;1318;3026412;-74
2022/02/11 08:42:43;;;;;;;52.50;20.50;;;;;;;4.23;76.42;99557.62;25073;1318;3070984;-74
2022/02/11 08:45:12;;;;;;;44.30;19.20;;;;;;;4.50;75.07;99552.03;25174;1314;3026839;-67
2022/02/11 08:47:41;;;;;;;48.90;21.70;;;;;;;4.54;74.66;99549.98;25134;1315;3050749;-67
2022/02/11 08:50:14;;;;;;;47.90;20.70;;;;;;;4.42;74.97;99549.71;25259;1314;3026856;-67
2022/02/11 08:52:43;;;;;;;57.40;23.40;;;;;;;4.18;75.61;99557.27;25115;1315;3053554;-68
2022/02/11 08:55:12;;;;;;;58.30;24.10;;;;;;;4.23;75.89;99540.81;25123;1315;3026385;-70
2022/02/11 08:57:47;;;;;;;58.00;23.30;;;;;;;4.17;76.02;99540.83;25108;1314;3050084;-72
2022/02/11 09:00:17;;;;;;;60.90;23.40;;;;;;;3.96;76.93;99544.46;25129;1318;3055553;-75
2022/02/11 09:02:45;;;;;;;49.30;20.40;;;;;;;4.06;77.02;99539.10;25126;1316;3028425;-72
2022/02/11 09:05:14;;;;;;;49.50;19.30;;;;;;;4.41;75.96;99531.19;25156;1315;3026435;-73
2022/02/11 09:07:45;;;;;;;50.20;19.40;;;;;;;4.70;74.73;99526.89;25087;1318;3052590;-73
2022/02/11 09:10:22;;;;;;;59.50;21.30;;;;;;;4.66;74.68;99531.38;17047;1318;3084871;-71
2022/02/11 09:12:51;;;;;;;51.10;20.40;;;;;;;4.53;75.45;99523.48;25122;1314;3026487;-71
2022/02/11 09:15:21;;;;;;;47.00;19.60;;;;;;;4.60;75.09;99517.52;25148;1315;3028653;-74
2022/02/11 09:17:50;;;;;;;46.10;19.30;;;;;;;4.43;75.87;99523.98;25123;1318;3050379;-71
2022/02/11 09:20:19;;;;;;;42.40;17.30;;;;;;;4.32;76.53;99509.61;25095;1316;3027007;-73
2022/02/11 09:22:49;;;;;;;42.00;15.70;;;;;;;4.38;76.54;99511.15;25178;1315;3028037;-70
2022/02/11 09:25:18;;;;;;;38.90;15.90;;;;;;;4.91;75.35;99496.78;25181;1315;3050901;-72
2022/02/11 09:27:47;;;;;;;33.40;15.50;;;;;;;4.98;74.59;99496.71;25129;1314;3026525;-72
2022/02/11 09:30:17;;;;;;;39.60;16.50;;;;;;;5.04;74.75;99493.02;25126;1315;3051278;-70
2022/02/11 09:32:55;;;;;;;40.00;16.50;;;;;;;5.12;74.10;99491.85;16578;1315;3041346;-74
2022/02/11 09:36:11;;;;;;;43.90;18.40;;;;;;;5.09;74.25;99490.09;7431;1316;3115144;-73
2022/02/11 09:38:44;;;;;;;49.40;17.70;;;;;;;5.00;74.94;99492.83;21490;1315;3085444;-73
2022/02/11 09:41:13;;;;;;;35.10;15.30;;;;;;;4.97;75.21;99492.58;25449;1314;3027159;-71
2022/02/11 09:43:41;;;;;;;29.90;12.30;;;;;;;4.98;75.33;99492.20;25127;1318;3071011;-73
2022/02/11 09:46:10;;;;;;;28.80;13.10;;;;;;;5.45;74.16;99487.63;25134;1314;3028297;-72
2022/02/11 09:48:39;;;;;;;23.30;11.30;;;;;;;5.82;72.86;99481.50;25037;1315;3051745;-70
2022/02/11 09:51:08;;;;;;;32.00;14.40;;;;;;;5.96;72.23;99473.98;25182;1314;3026510;-72
2022/02/11 09:53:37;;;;;;;27.90;12.40;;;;;;;5.99;71.93;99467.95;25111;1315;3026805;-73
2022/02/11 09:56:06;;;;;;;26.30;11.50;;;;;;;5.84;72.53;99468.19;25122;1318;3053419;-72
2022/02/11 09:58:35;;;;;;;29.30;11.70;;;;;;;5.67;72.85;99473.40;25165;1314;3026458;-70
2022/02/11 10:01:05;;;;;;;27.50;11.90;;;;;;;5.68;73.40;99466.75;25141;1314;3054923;-71
2022/02/11 10:03:36;;;;;;;25.20;10.90;;;;;;;5.77;73.10;99463.95;25151;1314;3027024;-72
2022/02/11 10:06:06;;;;;;;17.90;9.40;;;;;;;5.86;72.75;99459.59;25134;1315;3027449;-70
2022/02/11 10:08:37;;;;;;;18.50;8.80;;;;;;;5.84;73.10;99451.31;25154;1315;3027050;-70
2022/02/11 10:11:08;;;;;;;23.20;10.10;;;;;;;6.71;70.94;99448.33;25164;1314;3029712;-72
2022/02/11 10:13:57;;;;;;;19.40;9.20;;;;;;;6.92;70.15;99445.30;25156;1315;3051450;-67
2022/02/11 10:16:26;;;;;;;33.30;12.80;;;;;;;7.09;69.51;99441.04;24928;1315;3312868;-67
2022/02/11 10:19:00;;;;;;;29.70;11.20;;;;;;;7.20;69.39;99441.55;25073;1314;3056462;-68
2022/02/11 10:21:34;;;;;;;16.00;7.50;;;;;;;7.20;68.49;99448.02;25100;1315;3053246;-70
2022/02/11 10:24:03;;;;;;;17.10;7.90;;;;;;;6.80;68.95;99437.48;25124;1318;3057240;-70
2022/02/11 10:26:34;;;;;;;15.50;9.00;;;;;;;6.81;69.34;99440.58;25131;1314;3026140;-70
2022/02/11 10:29:03;;;;;;;12.60;7.30;;;;;;;6.85;68.90;99439.14;25141;1314;3026902;-69
2022/02/11 10:31:35;;;;;;;30.00;11.80;;;;;;;7.08;68.44;99424.88;25146;1321;3026708;-67
2022/02/11 10:34:08;;;;;;;14.90;8.00;;;;;;;7.06;68.41;99425.64;25132;1315;3025998;-67
2022/02/11 10:36:49;;;;;;;13.90;8.80;;;;;;;7.01;68.49;99421.20;25119;1314;3052270;-69
2022/02/11 10:39:19;;;;;;;17.00;8.20;;;;;;;6.84;69.42;99417.63;25122;1315;3051932;-68
2022/02/11 10:41:55;;;;;;;13.90;7.40;;;;;;;6.99;69.18;99423.34;25169;1318;3026784;-69
2022/02/11 10:44:29;;;;;;;17.90;7.30;;;;;;;7.02;69.25;99426.34;25133;1315;3058459;-67
2022/02/11 10:47:04;;;;;;;17.20;6.80;;;;;;;7.06;69.70;99422.54;25160;1314;3051546;-70
2022/02/11 10:49:42;;;;;;;11.50;6.00;;;;;;;7.61;68.28;99417.13;25088;1314;3057185;-71
2022/02/11 10:52:33;;;;;;;10.70;6.20;;;;;;;8.13;66.04;99417.50;25103;1314;3053346;-70
2022/02/11 10:55:02;;;;;;;12.10;6.60;;;;;;;7.90;66.34;99410.09;25116;1315;3067754;-71
2022/02/11 10:57:34;;;;;;;12.20;5.80;;;;;;;7.80;66.79;99413.04;25108;1312;3026408;-74
2022/02/11 11:00:05;;;;;;;12.90;7.00;;;;;;;7.85;66.64;99406.67;25114;1314;3029515;-77
2022/02/11 11:02:35;;;;;;;13.20;6.60;;;;;;;7.90;66.73;99408.88;25134;1315;3026627;-74
2022/02/11 11:05:06;;;;;;;15.20;7.10;;;;;;;7.65;67.22;99409.95;25094;1314;3026751;-71
2022/02/11 11:07:35;;;;;;;17.40;7.40;;;;;;;7.58;67.86;99402.13;25074;1317;3052082;-67
2022/02/11 11:10:08;;;;;;;17.40;7.00;;;;;;;7.62;67.92;99399.63;25095;1315;3026237;-73
2022/02/11 11:12:41;;;;;;;16.20;7.30;;;;;;;7.72;68.01;99400.52;25147;1314;3049946;-70
2022/02/11 11:15:12;;;;;;;16.90;7.90;;;;;;;7.39;69.03;99409.83;25117;1314;3051032;-71
2022/02/11 11:17:42;;;;;;;14.40;8.20;;;;;;;7.40;69.01;99413.64;25143;1315;3026688;-68
2022/02/11 11:20:11;;;;;;;13.20;7.40;;;;;;;7.41;69.29;99408.16;25054;1317;3027063;-71
2022/02/11 11:22:42;;;;;;;13.90;6.90;;;;;;;7.26;69.87;99413.55;25177;1314;3051779;-74
2022/02/11 11:25:11;;;;;;;12.10;6.70;;;;;;;7.18;70.36;99409.98;25114;1315;3028051;-72
2022/02/11 11:27:52;;;;;;;8.80;5.80;;;;;;;7.25;70.40;99405.60;25151;1314;3029048;-69
2022/02/11 11:30:30;;;;;;;13.90;6.80;;;;;;;7.78;68.88;99389.77;25148;1315;3052602;-70
2022/02/11 11:33:08;;;;;;;13.70;6.70;;;;;;;8.11;67.91;99388.63;25183;1315;3051402;-70
2022/02/11 11:35:40;;;;;;;11.70;7.00;;;;;;;8.19;67.24;99385.40;25096;1315;3056378;-72
2022/02/11 11:41:20;;;;;;;15.60;8.10;;;;;;;7.98;68.16;99380.23;31467;1319;3028192;-69
2022/02/11 11:43:52;;;;;;;17.10;8.50;;;;;;;8.09;67.83;99374.10;25091;1321;3026463;-70
2022/02/11 11:46:21;;;;;;;17.70;7.60;;;;;;;7.98;68.26;99377.77;24980;1322;3026473;-71
2022/02/11 11:49:10;;;;;;;13.30;7.60;;;;;;;7.80;69.24;99377.66;25099;1322;3026448;-71
2022/02/11 11:51:39;;;;;;;16.10;7.50;;;;;;;7.75;69.59;99371.65;25089;1321;3052845;-70
2022/02/11 11:54:17;;;;;;;15.30;7.60;;;;;;;7.67;70.16;99369.58;24463;1315;4021743;-72
2022/02/11 11:56:53;;;;;;;15.60;8.00;;;;;;;7.73;70.01;99363.55;25268;1316;3049017;-71
2022/02/11 11:59:45;;;;;;;12.30;6.20;;;;;;;7.68;70.22;99367.07;25179;1316;3052498;-70
2022/02/11 12:02:27;;;;;;;15.50;7.00;;;;;;;8.37;68.14;99361.98;25241;1315;3053080;-71
2022/02/11 12:04:57;;;;;;;11.00;5.80;;;;;;;8.67;66.64;99357.45;25228;1315;3056760;-70
2022/02/11 12:07:34;;;;;;;19.00;9.10;;;;;;;8.73;65.39;99357.83;25190;1315;3026580;-71
2022/02/11 12:10:09;;;;;;;14.40;7.30;;;;;;;8.33;65.92;99367.80;25216;1315;3052347;-70
2022/02/11 12:12:54;;;;;;;13.00;7.60;;;;;;;8.32;65.98;99359.80;25269;1316;3053545;-72
2022/02/11 12:15:24;;;;;;;16.20;9.20;;;;;;;8.29;65.95;99362.92;25155;1316;3026521;-71
2022/02/11 12:17:54;;;;;;;15.70;7.90;;;;;;;8.20;66.25;99355.36;25292;1316;3026748;-68
2022/02/11 12:20:24;;;;;;;18.80;6.80;;;;;;;8.08;66.38;99364.36;25285;1316;3053093;-70
2022/02/11 12:27:20;;;;;;;13.30;6.90;;;;;;;7.89;66.87;99367.44;25154;1316;3029930;-71
2022/02/11 12:28:31;;;;;;;12.00;6.70;;;;;;;7.96;66.78;99371.29;25259;1314;3051674;-71
2022/02/11 12:31:06;;;;;;;13.60;7.30;;;;;;;7.89;67.36;99367.95;25190;1316;3026703;-70
2022/02/11 12:33:37;;;;;;;16.00;7.10;;;;;;;8.02;66.99;99364.32;25190;1315;3026192;-71
2022/02/11 12:36:07;;;;;;;18.40;8.80;;;;;;;8.06;66.87;99358.90;25212;1315;3026817;-71
2022/02/11 12:38:37;;;;;;;16.80;8.90;;;;;;;7.97;67.28;99358.61;25257;1316;3026551;-70
2022/02/11 12:41:07;;;;;;;15.90;8.30;;;;;;;7.86;67.74;99353.11;25260;1316;3025608;-68
2022/02/11 12:43:36;;;;;;;15.50;9.20;;;;;;;7.99;67.22;99354.88;25211;1316;3026588;-69
2022/02/11 12:46:08;;;;;;;16.70;7.90;;;;;;;8.00;66.99;99353.77;25240;1316;3052304;-65
2022/02/11 12:48:40;;;;;;;12.70;7.50;;;;;;;7.76;67.82;99354.65;25210;1315;3027107;-64
2022/02/11 12:51:10;;;;;;;14.50;9.00;;;;;;;7.81;67.87;99347.45;25163;1316;3025816;-67
2022/02/11 12:53:39;;;;;;;13.90;7.90;;;;;;;7.80;67.77;99349.03;25231;1316;3028085;-66
2022/02/11 12:56:12;;;;;;;14.30;8.40;;;;;;;7.75;68.30;99344.25;25177;1316;3026679;-65
2022/02/11 12:58:41;;;;;;;14.10;9.20;;;;;;;7.74;68.28;99341.70;25233;1316;3048753;-67
2022/02/11 13:01:10;;;;;;;15.50;8.50;;;;;;;7.68;68.88;99340.59;25194;1316;3027537;-69
2022/02/11 13:03:39;;;;;;;15.00;7.70;;;;;;;8.26;67.47;99342.48;25341;1315;3056176;-65
2022/02/11 13:06:08;;;;;;;13.80;6.50;;;;;;;8.83;65.53;99336.98;25222;1315;3026486;-67
2022/02/11 13:08:37;;;;;;;21.20;8.80;;;;;;;8.87;65.13;99338.18;25781;1315;3055116;-68
2022/02/11 13:11:07;;;;;;;19.20;10.00;;;;;;;8.99;64.87;99336.48;25129;1316;3026260;-70
2022/02/11 13:13:36;;;;;;;17.00;9.30;;;;;;;8.61;65.99;99331.90;25236;1316;3052021;-66
2022/02/11 13:16:06;;;;;;;15.10;8.30;;;;;;;8.45;66.49;99328.05;25167;1316;3027274;-68
2022/02/11 13:18:38;;;;;;;13.80;8.10;;;;;;;8.42;66.85;99329.77;25165;1316;3026546;-66
2022/02/11 13:21:09;;;;;;;14.90;7.80;;;;;;;8.42;66.62;99333.83;25235;1316;3052950;-64
2022/02/11 13:23:39;;;;;;;13.40;8.10;;;;;;;8.41;66.78;99330.86;25206;1316;3026624;-68
2022/02/11 13:26:12;;;;;;;16.10;8.40;;;;;;;8.34;66.96;99343.80;25240;1316;3026745;-68
2022/02/11 13:28:49;;;;;;;17.20;8.70;;;;;;;8.22;67.41;99346.02;25140;1316;3027480;-67
2022/02/11 13:31:18;;;;;;;17.10;9.10;;;;;;;8.24;67.34;99348.38;25191;1316;3053383;-65
2022/02/11 13:34:07;;;;;;;19.50;8.60;;;;;;;8.11;67.64;99356.34;25181;1316;3026788;-65
2022/02/11 13:36:37;;;;;;;20.30;9.90;;;;;;;8.08;67.85;99359.51;25141;1316;3068993;-68
2022/02/11 13:39:06;;;;;;;15.80;9.50;;;;;;;8.01;68.24;99356.70;25201;1316;3026695;-68
2022/02/11 13:41:39;;;;;;;14.90;7.00;;;;;;;7.95;68.64;99357.55;25158;1314;3026490;-69
2022/02/11 13:44:11;;;;;;;12.80;6.70;;;;;;;8.60;67.78;99360.45;25172;1316;3030267;-68
2022/02/11 13:46:41;;;;;;;16.40;7.50;;;;;;;9.46;65.33;99361.45;25168;1316;3027681;-68
2022/02/11 13:49:16;;;;;;;15.20;8.10;;;;;;;9.35;64.23;99364.29;25134;1316;3026316;-65
2022/02/11 13:53:01;;;;;;;12.70;7.30;;;;;;;9.05;64.73;99360.41;25122;1316;3055799;-68
2022/02/11 13:54:35;;;;;;;17.90;8.40;;;;;;;8.88;65.13;99356.81;25188;1316;3055273;-69
2022/02/11 13:57:04;;;;;;;13.40;6.90;;;;;;;8.65;65.78;99353.16;25174;1316;3027026;-67
2022/02/11 13:59:33;;;;;;;19.10;10.10;;;;;;;8.42;66.46;99356.48;25195;1314;3052460;-70
2022/02/11 14:02:03;;;;;;;16.60;8.50;;;;;;;8.25;66.73;99352.34;25177;1315;3026523;-66
2022/02/11 14:04:33;;;;;;;18.80;9.40;;;;;;;8.15;67.13;99351.77;25143;1316;3029000;-68
2022/02/11 14:07:03;;;;;;;24.90;10.90;;;;;;;8.04;67.17;99352.34;25193;1314;3027496;-65
2022/02/11 14:09:37;;;;;;;26.30;11.60;;;;;;;7.99;67.48;99347.72;25182;1316;3026245;-70
2022/02/11 14:12:12;;;;;;;21.90;12.50;;;;;;;7.93;67.57;99343.49;25180;1316;3051767;-66
2022/02/11 14:15:10;;;;;;;25.90;14.40;;;;;;;8.01;67.26;99345.91;25149;1316;3058523;-68
2022/02/11 14:17:40;;;;;;;28.00;14.30;;;;;;;7.98;67.38;99352.49;25236;1315;3048697;-71
2022/02/11 14:20:10;;;;;;;29.00;14.10;;;;;;;7.85;67.70;99348.27;25194;1315;3026574;-71
2022/02/11 14:22:39;;;;;;;27.40;13.80;;;;;;;7.84;67.67;99348.66;25156;1316;3028550;-76
2022/02/11 14:25:09;;;;;;;36.30;15.00;;;;;;;7.89;67.40;99347.91;25220;1315;3027811;-72
2022/02/11 14:27:39;;;;;;;34.50;16.50;;;;;;;7.78;67.67;99347.95;25200;1316;3055214;-67
2022/02/11 14:30:08;;;;;;;33.80;16.60;;;;;;;7.72;67.61;99343.52;25177;1316;3028403;-70
2022/02/11 14:32:52;;;;;;;33.90;16.90;;;;;;;7.65;67.86;99340.55;25171;1315;3049692;-70
2022/02/11 14:35:21;;;;;;;27.60;13.60;;;;;;;7.53;68.65;99342.75;25269;1316;3027717;-71
2022/02/11 14:37:49;;;;;;;27.80;13.20;;;;;;;8.36;67.53;99339.66;25150;1316;3055425;-70
2022/02/11 14:40:18;;;;;;;23.90;12.80;;;;;;;8.85;65.06;99342.81;25257;1316;3027020;-71
2022/02/11 14:42:48;;;;;;;32.10;17.10;;;;;;;8.67;64.53;99347.30;25228;1315;3051412;-68
2022/02/11 14:45:17;;;;;;;23.80;13.30;;;;;;;8.21;65.79;99346.95;25239;1316;3028681;-68
2022/02/11 14:47:47;;;;;;;26.00;13.40;;;;;;;8.12;65.94;99342.35;25200;1315;3025811;-70
2022/02/11 14:50:16;;;;;;;31.30;16.00;;;;;;;7.79;66.94;99342.27;25186;1316;3051904;-70
2022/02/11 14:52:45;;;;;;;28.90;15.20;;;;;;;7.45;68.05;99346.61;25263;1316;3026845;-73
2022/02/11 14:55:15;;;;;;;32.00;18.50;;;;;;;7.23;68.85;99352.40;25198;1316;3054564;-70
2022/02/11 14:57:44;;;;;;;33.90;19.30;;;;;;;6.94;69.48;99356.89;25249;1315;3026761;-68
2022/02/11 15:00:13;;;;;;;43.80;25.20;;;;;;;6.92;69.18;99356.81;25134;1316;3027760;-67
2022/02/11 15:02:43;;;;;;;40.60;22.20;;;;;;;6.53;70.66;99368.72;25205;1315;3055259;-69
2022/02/11 15:05:12;;;;;;;47.90;26.30;;;;;;;6.41;70.92;99368.20;25195;1316;3028943;-68
2022/02/11 15:07:45;;;;;;;40.70;22.40;;;;;;;6.38;70.97;99373.92;25179;1316;3051865;-67
2022/02/11 15:10:15;;;;;;;37.50;21.20;;;;;;;6.31;71.41;99367.96;25243;1315;3026428;-67
2022/02/11 15:12:44;;;;;;;41.90;21.70;;;;;;;7.04;69.59;99367.77;25268;1316;3028415;-68
2022/02/11 15:15:34;;;;;;;29.70;18.90;;;;;;;7.21;68.48;99371.64;25149;1316;3056412;-71
2022/02/11 15:18:05;;;;;;;44.90;22.40;;;;;;;7.36;67.12;99371.63;25249;1315;3029741;-70
2022/02/11 15:20:37;;;;;;;49.30;24.90;;;;;;;6.95;68.11;99380.55;25256;1316;3026880;-66
2022/02/11 15:23:06;;;;;;;45.70;23.20;;;;;;;6.80;68.43;99390.27;25201;1315;3029537;-71
2022/02/11 15:25:35;;;;;;;66.50;30.30;;;;;;;6.65;68.82;99388.73;25112;1316;3027132;-66
2022/02/11 15:28:05;;;;;;;55.80;29.70;;;;;;;6.38;69.65;99388.35;25188;1316;3054693;-67
2022/02/11 15:30:34;;;;;;;53.80;27.10;;;;;;;6.26;69.95;99389.58;25180;1316;3026399;-71
2022/02/11 15:33:03;;;;;;;47.00;25.80;;;;;;;6.06;70.69;99385.06;25198;1315;3049540;-69